Time;durP1;ratioP1;P1;durP2;ratioP2;P2;SDS_P1;SDS_P2;PMS_P1;PMS_P2;Temp;Humidity;BMP_temperature;BMP_pressure;BME280_temperature;BME280_humidity;BME280_pressure;Samples;Min_cycle;Max_cycle;Signal;HPM_P1;HPM_P2
2024/03/15 00:01:33;;;;;;;7.87;7.07;;;11.50;99.90;;;;;;5123434;28;20453;-63
2024/03/15 00:04:00;;;;;;;8.33;6.90;;;11.50;99.90;;;;;;5127811;28;20531;-64
2024/03/15 00:06:27;;;;;;;7.67;6.90;;;11.50;99.90;;;;;;5119988;28;20540;-63
2024/03/15 00:08:55;;;;;;;8.87;7.87;;;11.50;99.90;;;;;;5116108;28;20438;-62
2024/03/15 00:11:22;;;;;;;7.73;7.00;;;11.50;99.90;;;;;;5115376;28;20488;-62
2024/03/15 00:13:49;;;;;;;8.93;7.93;;;11.50;99.90;;;;;;5114941;28;20938;-63
2024/03/15 00:16:16;;;;;;;7.83;6.40;;;11.50;99.90;;;;;;5115781;28;20529;-62
2024/03/15 00:18:43;;;;;;;10.40;7.20;;;11.50;99.90;;;;;;5115529;28;20477;-63
2024/03/15 00:21:10;;;;;;;8.63;7.80;;;11.50;99.90;;;;;;5115191;28;20471;-63
2024/03/15 00:23:37;;;;;;;7.93;7.13;;;11.50;99.90;;;;;;5115044;28;20449;-63
2024/03/15 00:26:04;;;;;;;8.10;6.47;;;11.40;99.90;;;;;;5115082;28;20457;-62
2024/03/15 00:28:30;;;;;;;8.20;7.20;;;11.50;99.90;;;;;;5117657;28;20438;-62
2024/03/15 00:30:57;;;;;;;8.47;7.30;;;11.50;99.90;;;;;;5124709;28;20487;-63
2024/03/15 00:33:24;;;;;;;8.57;6.73;;;11.40;99.90;;;;;;5122305;28;20447;-63
2024/03/15 00:35:51;;;;;;;7.77;6.97;;;11.40;99.90;;;;;;5123940;28;20469;-63
2024/03/15 00:38:19;;;;;;;7.43;6.57;;;11.50;99.90;;;;;;5126099;28;20479;-63
2024/03/15 00:40:46;;;;;;;10.60;7.80;;;11.40;99.90;;;;;;5120258;28;20504;-63
2024/03/15 00:43:15;;;;;;;8.13;7.43;;;11.50;99.90;;;;;;5119194;28;20444;-63
2024/03/15 00:45:43;;;;;;;7.27;6.50;;;11.50;99.90;;;;;;5118398;28;20525;-63
2024/03/15 00:48:10;;;;;;;9.03;7.07;;;11.50;99.90;;;;;;5118493;28;20532;-62
2024/03/15 00:50:37;;;;;;;7.63;6.83;;;11.50;99.90;;;;;;5118463;28;20440;-62
2024/03/15 00:53:04;;;;;;;8.67;7.77;;;11.50;99.90;;;;;;5118648;28;20532;-63
2024/03/15 00:55:32;;;;;;;11.87;7.33;;;11.50;99.90;;;;;;5118619;28;20467;-62
2024/03/15 00:57:59;;;;;;;8.33;7.50;;;11.60;99.90;;;;;;5118083;28;20455;-63
2024/03/15 01:00:26;;;;;;;8.43;7.63;;;11.60;99.90;;;;;;5117958;28;20528;-62
2024/03/15 01:02:53;;;;;;;10.57;6.70;;;11.60;99.90;;;;;;5118429;28;20484;-63
2024/03/15 01:05:20;;;;;;;8.60;7.70;;;11.60;99.90;;;;;;5118224;28;20449;-63
2024/03/15 01:07:47;;;;;;;8.03;7.23;;;11.60;99.90;;;;;;5117975;28;20541;-63
2024/03/15 01:10:14;;;;;;;8.73;7.43;;;11.60;99.90;;;;;;5118139;28;20935;-63
2024/03/15 01:12:41;;;;;;;8.17;7.37;;;11.60;99.90;;;;;;5118694;28;20473;-63
2024/03/15 01:15:09;;;;;;;9.50;8.57;;;11.60;99.90;;;;;;5118495;28;20461;-62
2024/03/15 01:17:36;;;;;;;9.73;7.77;;;11.60;99.90;;;;;;5118152;28;21003;-63
2024/03/15 01:20:05;;;;;;;7.77;6.87;;;11.60;99.90;;;;;;5118291;28;20481;-62
2024/03/15 01:22:32;;;;;;;8.90;7.87;;;11.70;99.90;;;;;;5118624;28;20846;-63
2024/03/15 01:24:59;;;;;;;8.00;7.20;;;11.70;99.90;;;;;;5117697;28;20490;-62
2024/03/15 01:27:25;;;;;;;8.97;8.10;;;11.70;99.90;;;;;;5117449;28;20499;-62
2024/03/15 01:29:54;;;;;;;10.03;9.00;;;11.70;99.90;;;;;;5117497;28;20430;-62
2024/03/15 01:32:22;;;;;;;10.37;7.87;;;11.70;99.90;;;;;;5117555;28;20454;-63
2024/03/15 01:34:50;;;;;;;9.77;7.80;;;11.70;99.90;;;;;;5117460;28;20506;-63
2024/03/15 01:37:17;;;;;;;8.17;7.37;;;11.70;99.90;;;;;;5118455;28;20491;-62
2024/03/15 01:39:44;;;;;;;9.47;8.27;;;11.70;99.90;;;;;;5116978;28;20473;-62
2024/03/15 01:42:11;;;;;;;9.87;8.50;;;11.70;99.90;;;;;;5116970;28;20488;-62
2024/03/15 01:44:44;;;;;;;10.73;8.97;;;11.70;99.90;;;;;;5116986;28;20935;-62
2024/03/15 01:47:11;;;;;;;9.43;8.40;;;11.80;99.90;;;;;;5117706;28;20414;-64
2024/03/15 01:49:41;;;;;;;8.47;7.67;;;11.80;99.90;;;;;;5117755;28;20445;-63
2024/03/15 01:52:08;;;;;;;10.93;7.90;;;11.80;99.90;;;;;;5117047;28;20498;-63
2024/03/15 01:54:35;;;;;;;9.13;7.90;;;11.80;99.90;;;;;;5117809;28;20494;-62
2024/03/15 01:57:05;;;;;;;9.00;8.10;;;11.80;99.90;;;;;;5117791;28;20444;-63
2024/03/15 01:59:32;;;;;;;10.87;9.27;;;11.80;99.90;;;;;;5118076;28;20477;-62
2024/03/15 02:02:02;;;;;;;8.33;7.27;;;11.80;99.90;;;;;;5117975;28;20433;-62
2024/03/15 02:04:30;;;;;;;8.93;8.13;;;11.80;99.90;;;;;;5117320;28;20437;-62
2024/03/15 02:06:56;;;;;;;8.93;8.03;;;11.90;99.90;;;;;;5116669;28;20997;-63
2024/03/15 02:09:24;;;;;;;13.07;9.10;;;11.90;99.90;;;;;;5116268;28;20444;-62
2024/03/15 02:11:52;;;;;;;10.90;8.43;;;11.90;99.90;;;;;;5116302;28;20532;-63
2024/03/15 02:14:19;;;;;;;9.07;8.17;;;11.90;99.90;;;;;;5116196;28;20869;-62
2024/03/15 02:16:47;;;;;;;8.73;7.90;;;12.00;99.90;;;;;;5115956;28;20468;-63
2024/03/15 02:19:14;;;;;;;10.50;8.20;;;12.00;99.90;;;;;;5116156;28;20503;-63
2024/03/15 02:21:41;;;;;;;10.77;8.70;;;12.00;99.90;;;;;;5120163;28;20456;-63
2024/03/15 02:24:08;;;;;;;11.00;8.37;;;12.00;99.90;;;;;;5119678;28;20935;-62
2024/03/15 02:26:34;;;;;;;9.10;8.10;;;11.90;99.90;;;;;;5116150;28;20854;-63
2024/03/15 02:29:02;;;;;;;10.17;9.13;;;12.00;99.90;;;;;;5116146;28;20441;-63
2024/03/15 02:31:29;;;;;;;9.63;8.70;;;12.00;99.90;;;;;;5116314;28;20444;-63
2024/03/15 02:33:56;;;;;;;10.43;8.33;;;12.00;99.90;;;;;;5116288;28;20441;-64
2024/03/15 02:36:23;;;;;;;9.63;8.43;;;12.00;99.90;;;;;;5116569;28;20459;-63
2024/03/15 02:38:49;;;;;;;11.17;9.60;;;12.00;99.90;;;;;;5116103;28;20478;-63
2024/03/15 02:41:16;;;;;;;11.70;8.60;;;12.00;99.90;;;;;;5116014;28;20452;-62
2024/03/15 02:43:43;;;;;;;9.20;8.10;;;12.00;99.90;;;;;;5117549;28;20448;-62
2024/03/15 02:46:10;;;;;;;7.90;7.07;;;12.00;99.90;;;;;;5117437;28;20458;-62
2024/03/15 02:48:38;;;;;;;8.90;7.63;;;11.90;99.90;;;;;;5116544;28;20445;-62
2024/03/15 02:51:05;;;;;;;9.50;8.50;;;12.00;99.90;;;;;;5116865;28;20445;-63
2024/03/15 02:53:32;;;;;;;8.60;7.77;;;11.90;99.90;;;;;;5115632;28;20433;-63
2024/03/15 02:56:00;;;;;;;9.40;7.77;;;11.90;99.90;;;;;;5118216;28;20812;-63
2024/03/15 02:58:27;;;;;;;8.03;7.10;;;11.90;99.90;;;;;;5118221;28;20456;-61
2024/03/15 03:00:54;;;;;;;9.53;7.57;;;11.90;99.90;;;;;;5116705;28;20430;-63
2024/03/15 03:03:21;;;;;;;8.60;7.33;;;11.80;99.90;;;;;;5117394;28;20448;-62
2024/03/15 03:05:48;;;;;;;10.00;8.60;;;11.80;99.90;;;;;;5116365;28;20828;-61
2024/03/15 03:08:15;;;;;;;9.20;8.30;;;11.70;99.90;;;;;;5124947;28;20954;-63
2024/03/15 03:10:42;;;;;;;10.90;8.53;;;11.70;99.90;;;;;;5124928;28;20437;-63
2024/03/15 03:13:09;;;;;;;10.90;8.73;;;11.60;99.90;;;;;;5120897;28;20459;-63
2024/03/15 03:15:36;;;;;;;8.93;8.03;;;11.60;99.90;;;;;;5119261;28;20461;-62
2024/03/15 03:18:03;;;;;;;10.07;8.37;;;11.50;99.90;;;;;;5117853;28;20442;-61
2024/03/15 03:20:32;;;;;;;9.00;8.20;;;11.50;99.90;;;;;;5116832;28;20492;-63
2024/03/15 03:22:59;;;;;;;9.37;7.93;;;11.40;99.90;;;;;;5116126;28;20931;-61
2024/03/15 03:25:26;;;;;;;10.50;8.63;;;11.30;99.90;;;;;;5116243;28;20561;-62
2024/03/15 03:27:53;;;;;;;8.93;7.27;;;11.20;99.90;;;;;;5116061;28;20816;-63
2024/03/15 03:30:21;;;;;;;9.43;8.53;;;11.20;99.90;;;;;;5116580;28;20441;-62
2024/03/15 03:32:49;;;;;;;9.20;8.23;;;11.10;99.90;;;;;;5117041;28;20442;-63
2024/03/15 03:35:16;;;;;;;11.10;9.90;;;11.00;99.90;;;;;;5115703;28;20518;-63
2024/03/15 03:37:43;;;;;;;9.30;8.37;;;10.90;99.90;;;;;;5115416;28;20429;-62
2024/03/15 03:40:14;;;;;;;9.43;8.53;;;10.90;99.90;;;;;;5116712;28;20503;-62
2024/03/15 03:42:43;;;;;;;9.73;8.73;;;10.90;99.90;;;;;;5116865;28;20418;-63
2024/03/15 03:45:15;;;;;;;9.47;8.40;;;10.80;99.90;;;;;;5116021;28;20472;-62
2024/03/15 03:47:43;;;;;;;11.20;8.10;;;10.70;99.90;;;;;;5117596;28;20422;-62
2024/03/15 03:50:11;;;;;;;10.13;9.03;;;10.70;99.90;;;;;;5119559;28;20981;-63
2024/03/15 03:52:39;;;;;;;11.33;9.63;;;10.60;99.90;;;;;;5122726;28;20437;-63
2024/03/15 03:55:07;;;;;;;11.43;10.30;;;10.60;99.90;;;;;;5122790;28;20489;-64
2024/03/15 03:57:34;;;;;;;11.50;10.30;;;10.60;99.90;;;;;;5119660;28;20463;-63
2024/03/15 04:00:05;;;;;;;10.63;9.20;;;10.60;99.90;;;;;;5118022;28;20484;-62
2024/03/15 04:02:32;;;;;;;12.83;10.70;;;10.70;99.90;;;;;;5116075;28;20426;-63
2024/03/15 04:04:59;;;;;;;11.97;10.77;;;10.70;99.90;;;;;;5116042;28;20465;-63
2024/03/15 04:07:29;;;;;;;12.63;11.40;;;10.70;99.90;;;;;;5116284;28;20440;-62
2024/03/15 04:13:19;;;;;;;11.70;10.50;;;10.90;99.90;;;;;;5171052;27;20991;-63
2024/03/15 04:15:47;;;;;;;10.33;9.23;;;10.90;99.90;;;;;;5153181;27;20456;-64
2024/03/15 04:18:15;;;;;;;14.23;10.10;;;11.00;99.90;;;;;;5136142;27;20434;-62
2024/03/15 04:20:42;;;;;;;13.20;10.30;;;11.00;99.90;;;;;;5136157;27;20446;-60
2024/03/15 04:23:12;;;;;;;13.40;11.00;;;11.00;99.90;;;;;;5136689;27;20474;-62
2024/03/15 04:25:43;;;;;;;13.27;9.73;;;10.90;99.90;;;;;;5136061;27;20456;-62
2024/03/15 04:28:11;;;;;;;11.30;9.63;;;10.90;99.90;;;;;;5136298;27;20901;-62
2024/03/15 04:30:37;;;;;;;13.37;10.97;;;10.80;99.90;;;;;;5135526;27;20440;-63
2024/03/15 04:33:06;;;;;;;13.43;11.27;;;10.80;99.90;;;;;;5135075;27;20467;-63
2024/03/15 04:35:32;;;;;;;12.77;10.63;;;10.70;99.90;;;;;;5135868;27;20481;-63
2024/03/15 04:38:03;;;;;;;12.47;10.20;;;10.60;99.90;;;;;;5149166;27;20816;-63
2024/03/15 04:40:30;;;;;;;11.87;9.47;;;10.60;99.90;;;;;;5150971;27;20447;-63
2024/03/15 04:42:57;;;;;;;11.30;10.00;;;10.50;99.90;;;;;;5138915;27;20436;-63
2024/03/15 04:45:24;;;;;;;18.00;12.17;;;10.50;99.90;;;;;;5135139;27;20452;-62
2024/03/15 04:47:51;;;;;;;13.43;11.77;;;10.40;99.90;;;;;;5134962;27;20942;-62
2024/03/15 04:50:18;;;;;;;13.17;11.03;;;10.40;99.90;;;;;;5135220;27;20439;-62
2024/03/15 04:52:45;;;;;;;12.20;10.90;;;10.40;99.90;;;;;;5135737;27;21015;-63
2024/03/15 04:55:13;;;;;;;12.27;10.97;;;10.30;99.90;;;;;;5137389;27;20451;-63
2024/03/15 04:57:40;;;;;;;11.30;9.80;;;10.30;99.90;;;;;;5138770;27;20444;-63
2024/03/15 05:00:17;;;;;;;12.90;10.30;;;10.30;99.90;;;;;;5143516;27;20503;-61
2024/03/15 05:02:44;;;;;;;12.57;10.67;;;10.30;99.90;;;;;;5116437;22;20890;-60
2024/03/15 05:05:13;;;;;;;11.53;10.30;;;10.30;99.90;;;;;;5071812;28;20445;-59
2024/03/15 05:07:40;;;;;;;12.73;11.37;;;10.30;99.90;;;;;;5072332;28;20513;-60
2024/03/15 05:10:08;;;;;;;13.77;10.63;;;10.30;99.90;;;;;;5072344;28;20794;-60
2024/03/15 05:12:35;;;;;;;14.07;11.10;;;10.40;99.90;;;;;;5090285;28;20477;-59
2024/03/15 05:15:03;;;;;;;11.93;10.50;;;10.40;99.90;;;;;;5094168;28;20499;-59
2024/03/15 05:17:30;;;;;;;12.23;9.37;;;10.40;99.90;;;;;;5092872;28;20442;-60
2024/03/15 05:19:57;;;;;;;13.50;10.40;;;10.40;99.90;;;;;;5110860;28;20442;-59
2024/03/15 05:22:24;;;;;;;12.40;9.60;;;10.40;99.90;;;;;;5095318;28;20464;-61
2024/03/15 05:24:52;;;;;;;12.63;10.53;;;10.40;99.90;;;;;;5097212;28;20966;-60
2024/03/15 05:27:18;;;;;;;11.80;10.03;;;10.40;99.90;;;;;;5079637;28;20514;-60
2024/03/15 05:29:45;;;;;;;14.20;11.13;;;10.40;99.90;;;;;;5079314;28;20536;-59
2024/03/15 05:32:12;;;;;;;12.83;10.60;;;10.40;99.90;;;;;;5080489;28;20474;-58
2024/03/15 05:34:39;;;;;;;11.47;9.97;;;10.40;99.90;;;;;;5079755;28;20435;-59
2024/03/15 05:37:06;;;;;;;11.00;9.90;;;10.40;99.90;;;;;;5095878;28;20438;-57
2024/03/15 05:39:34;;;;;;;13.70;9.87;;;10.40;99.90;;;;;;5095855;28;20529;-58
2024/03/15 05:42:01;;;;;;;10.57;9.10;;;10.50;99.90;;;;;;5095504;28;20458;-59
2024/03/15 05:44:27;;;;;;;15.93;10.13;;;10.50;99.90;;;;;;5095661;28;20434;-58
2024/03/15 05:46:58;;;;;;;12.77;10.07;;;10.60;99.90;;;;;;5078775;28;20447;-59
2024/03/15 05:49:25;;;;;;;10.97;9.13;;;10.60;99.90;;;;;;5078922;28;20525;-60
2024/03/15 05:51:51;;;;;;;13.07;9.50;;;10.60;99.90;;;;;;5094842;28;20478;-59
2024/03/15 05:54:18;;;;;;;11.80;9.53;;;10.60;99.90;;;;;;5094684;28;20438;-60
2024/03/15 05:56:45;;;;;;;9.17;7.77;;;10.70;99.90;;;;;;5095103;28;20441;-59
2024/03/15 05:59:12;;;;;;;11.80;9.70;;;10.70;99.90;;;;;;5095065;28;20813;-58
2024/03/15 06:01:40;;;;;;;12.77;9.27;;;10.80;99.90;;;;;;5094561;28;20500;-59
2024/03/15 06:04:10;;;;;;;13.33;9.87;;;10.80;99.90;;;;;;5094665;28;20496;-59
2024/03/15 06:06:40;;;;;;;12.93;9.50;;;10.90;99.90;;;;;;5094775;28;20424;-58
2024/03/15 06:09:09;;;;;;;12.40;9.27;;;11.00;99.90;;;;;;5095149;28;20591;-58
2024/03/15 06:11:36;;;;;;;12.47;9.70;;;11.10;99.90;;;;;;5095002;28;20463;-59
2024/03/15 06:14:03;;;;;;;9.53;8.53;;;11.20;99.90;;;;;;5094594;28;20454;-58
2024/03/15 06:16:31;;;;;;;11.30;9.23;;;11.20;99.90;;;;;;5094624;28;20875;-59
2024/03/15 06:18:58;;;;;;;12.03;9.50;;;11.30;99.90;;;;;;5094689;28;20880;-65
2024/03/15 06:21:26;;;;;;;10.97;9.23;;;11.40;99.90;;;;;;5094498;28;20461;-59
2024/03/15 06:23:53;;;;;;;9.50;8.47;;;11.50;99.90;;;;;;5094061;28;20810;-59
2024/03/15 06:26:22;;;;;;;11.07;8.67;;;11.60;99.90;;;;;;5093697;28;20446;-59
2024/03/15 06:28:49;;;;;;;9.70;8.13;;;11.70;99.90;;;;;;5093035;28;20438;-59
2024/03/15 06:31:16;;;;;;;10.83;8.90;;;11.80;99.90;;;;;;5093474;28;20549;-59
2024/03/15 06:33:43;;;;;;;12.00;9.27;;;11.80;99.90;;;;;;5093534;28;20474;-60
2024/03/15 06:36:16;;;;;;;11.60;9.00;;;11.90;99.90;;;;;;5092422;28;20438;-58
2024/03/15 06:38:53;;;;;;;9.73;8.27;;;11.90;99.90;;;;;;5093465;28;20778;-60
2024/03/15 06:41:29;;;;;;;11.20;8.10;;;11.90;99.90;;;;;;5093196;28;20982;-59
2024/03/15 06:43:58;;;;;;;10.43;9.37;;;11.90;99.90;;;;;;5093319;28;20458;-59
2024/03/15 06:46:29;;;;;;;11.57;9.00;;;11.90;99.90;;;;;;5092979;28;20489;-59
2024/03/15 06:48:56;;;;;;;10.80;9.20;;;12.00;99.90;;;;;;5092955;28;20909;-59
2024/03/15 06:54:09;;;;;;;9.20;8.27;;;12.00;99.90;;;;;;5093448;28;20407;-58
2024/03/15 06:56:37;;;;;;;9.00;8.10;;;12.00;99.90;;;;;;5093033;28;20446;-59
2024/03/15 06:59:04;;;;;;;9.80;8.63;;;12.20;99.90;;;;;;5092743;28;20435;-60
2024/03/15 07:01:31;;;;;;;17.03;9.60;;;12.20;99.90;;;;;;5092381;28;20959;-61
2024/03/15 07:03:59;;;;;;;12.00;9.03;;;12.30;99.90;;;;;;5092889;28;20441;-58
2024/03/15 07:06:27;;;;;;;10.73;8.60;;;12.40;99.90;;;;;;5092979;28;20442;-60
2024/03/15 07:08:57;;;;;;;10.63;8.90;;;12.40;99.90;;;;;;5092535;28;20435;-60
2024/03/15 07:11:28;;;;;;;11.40;8.90;;;12.60;99.90;;;;;;5094018;28;20493;-60
2024/03/15 07:13:56;;;;;;;10.30;9.17;;;12.70;99.90;;;;;;5097189;28;20836;-59
2024/03/15 07:16:24;;;;;;;11.33;9.20;;;12.80;99.90;;;;;;5093549;28;20442;-61
2024/03/15 07:18:51;;;;;;;9.73;7.97;;;12.90;99.90;;;;;;5092168;28;20929;-59
2024/03/15 07:21:18;;;;;;;9.27;7.90;;;13.00;99.90;;;;;;5092006;28;20464;-60
2024/03/15 07:23:45;;;;;;;8.20;6.80;;;13.10;99.90;;;;;;5092333;28;20442;-59
2024/03/15 07:26:12;;;;;;;9.17;6.93;;;13.20;99.90;;;;;;5092204;28;20439;-61
2024/03/15 07:28:39;;;;;;;10.27;7.13;;;13.30;99.90;;;;;;5092657;28;20440;-59
2024/03/15 07:31:06;;;;;;;8.03;6.60;;;13.40;99.90;;;;;;5091723;28;20460;-57
2024/03/15 07:33:34;;;;;;;11.70;7.53;;;13.50;99.90;;;;;;5092062;28;20477;-59
2024/03/15 07:36:04;;;;;;;7.50;6.70;;;13.50;99.90;;;;;;5092185;28;20439;-60
2024/03/15 07:38:31;;;;;;;16.07;6.97;;;13.50;99.90;;;;;;5091877;28;20445;-61
2024/03/15 07:40:57;;;;;;;9.03;7.10;;;13.50;99.90;;;;;;5091724;28;20528;-59
2024/03/15 07:43:26;;;;;;;9.30;6.83;;;13.50;99.90;;;;;;5092181;28;20436;-60
2024/03/15 07:45:53;;;;;;;7.03;6.23;;;13.60;99.90;;;;;;5093764;28;20447;-60
2024/03/15 07:48:20;;;;;;;7.60;6.67;;;13.60;99.90;;;;;;5096651;28;20446;-61
2024/03/15 07:50:46;;;;;;;8.30;6.77;;;13.60;99.90;;;;;;5096314;28;20443;-60
2024/03/15 07:53:15;;;;;;;7.47;6.70;;;13.70;99.90;;;;;;5093161;28;21063;-59
2024/03/15 07:55:41;;;;;;;9.93;7.57;;;13.80;99.90;;;;;;5092656;28;20490;-61
2024/03/15 07:58:10;;;;;;;10.57;6.93;;;14.00;99.90;;;;;;5092358;28;20439;-61
2024/03/15 08:00:38;;;;;;;11.33;6.40;;;14.00;99.90;;;;;;5092263;28;20497;-60
2024/03/15 08:03:06;;;;;;;7.77;6.80;;;14.20;99.90;;;;;;5091976;28;20626;-61
2024/03/15 08:05:33;;;;;;;8.97;6.50;;;14.20;99.90;;;;;;5091909;28;20949;-61
2024/03/15 08:08:00;;;;;;;8.67;6.93;;;14.30;99.90;;;;;;5092184;28;20479;-61
2024/03/15 08:10:27;;;;;;;10.23;6.43;;;14.20;99.90;;;;;;5092152;28;20441;-60
2024/03/15 08:12:55;;;;;;;8.87;6.83;;;14.30;99.90;;;;;;5091819;28;20847;-60
2024/03/15 08:15:23;;;;;;;9.53;7.10;;;14.30;99.90;;;;;;5091795;28;20442;-61
2024/03/15 08:17:50;;;;;;;8.17;6.50;;;14.30;99.90;;;;;;5092057;28;20449;-60
2024/03/15 08:20:17;;;;;;;6.30;5.70;;;14.40;99.90;;;;;;5091800;28;20453;-60
2024/03/15 08:22:44;;;;;;;6.53;5.70;;;14.50;99.90;;;;;;5091526;28;20465;-59
2024/03/15 08:25:11;;;;;;;6.93;5.43;;;14.50;99.90;;;;;;5091802;28;20435;-60
2024/03/15 08:27:39;;;;;;;7.80;6.27;;;14.50;99.90;;;;;;5091928;28;20445;-59
2024/03/15 08:30:08;;;;;;;8.03;6.20;;;14.50;99.90;;;;;;5091679;28;20441;-60
2024/03/15 08:32:36;;;;;;;6.40;5.43;;;14.50;99.90;;;;;;5091425;28;20486;-60
2024/03/15 08:35:03;;;;;;;8.33;6.20;;;14.50;99.90;;;;;;5091236;28;20437;-60
2024/03/15 08:37:31;;;;;;;10.57;7.20;;;14.70;99.90;;;;;;5091645;28;20519;-60
2024/03/15 08:39:58;;;;;;;7.10;5.70;;;14.70;99.90;;;;;;5091996;28;20947;-61
2024/03/15 08:42:24;;;;;;;7.60;5.80;;;14.90;99.90;;;;;;5091572;28;20473;-61
2024/03/15 08:44:53;;;;;;;7.00;6.27;;;15.00;99.90;;;;;;5092208;28;20431;-60
2024/03/15 08:47:22;;;;;;;6.00;5.40;;;15.10;99.90;;;;;;5092966;28;20442;-60
2024/03/15 08:49:51;;;;;;;6.63;5.80;;;15.20;99.90;;;;;;5093411;28;20445;-60
2024/03/15 08:52:18;;;;;;;7.90;6.50;;;15.20;99.90;;;;;;5094112;28;20545;-61
2024/03/15 08:54:45;;;;;;;8.33;5.97;;;15.40;99.90;;;;;;5091966;28;20486;-61
2024/03/15 08:57:12;;;;;;;8.10;6.13;;;15.50;99.90;;;;;;5092430;28;20461;-60
2024/03/15 08:59:40;;;;;;;9.80;5.50;;;15.50;99.90;;;;;;5095409;28;20441;-61
2024/03/15 09:02:07;;;;;;;7.67;6.13;;;15.60;99.90;;;;;;5095036;28;20948;-61
2024/03/15 09:04:35;;;;;;;7.77;6.40;;;15.60;99.90;;;;;;5095504;28;20452;-61
2024/03/15 09:07:02;;;;;;;6.83;6.13;;;15.60;99.90;;;;;;5096248;28;20461;-61
2024/03/15 09:09:32;;;;;;;6.83;6.17;;;15.70;99.90;;;;;;5099377;28;20444;-62
2024/03/15 09:11:59;;;;;;;6.83;6.13;;;15.70;99.90;;;;;;5099241;28;20450;-61
2024/03/15 09:14:29;;;;;;;6.57;5.87;;;15.70;99.80;;;;;;5095864;28;20485;-61
2024/03/15 09:16:56;;;;;;;7.80;6.07;;;15.70;99.90;;;;;;5095519;28;20464;-62
2024/03/15 09:19:23;;;;;;;6.67;6.03;;;15.60;99.90;;;;;;5095323;28;20452;-59
2024/03/15 09:21:49;;;;;;;7.13;5.97;;;15.50;99.90;;;;;;5095104;28;20454;-62
2024/03/15 09:24:17;;;;;;;8.80;6.50;;;15.40;99.90;;;;;;5094221;28;20430;-60
2024/03/15 09:26:44;;;;;;;9.47;7.00;;;15.30;99.90;;;;;;5094954;28;20442;-61
2024/03/15 09:29:11;;;;;;;8.60;6.63;;;15.20;99.90;;;;;;5094891;28;20438;-60
2024/03/15 09:31:40;;;;;;;13.10;7.93;;;15.10;99.90;;;;;;5094691;28;20461;-61
2024/03/15 09:34:10;;;;;;;17.93;7.10;;;15.00;99.90;;;;;;5094685;28;20476;-60
2024/03/15 09:36:38;;;;;;;8.07;6.00;;;14.90;99.90;;;;;;5095128;28;20782;-61
2024/03/15 09:39:05;;;;;;;8.00;6.60;;;14.80;99.90;;;;;;5095049;28;20442;-59
2024/03/15 09:41:32;;;;;;;8.10;7.30;;;14.80;99.90;;;;;;5094140;28;20837;-60
2024/03/15 09:43:59;;;;;;;10.50;6.73;;;14.70;99.90;;;;;;5094461;28;20458;-62
2024/03/15 09:46:28;;;;;;;6.87;6.27;;;14.70;99.90;;;;;;5094140;28;20499;-61
2024/03/15 09:48:56;;;;;;;6.60;5.90;;;14.60;99.90;;;;;;5094083;28;20456;-61
2024/03/15 09:51:23;;;;;;;8.03;6.37;;;14.60;99.90;;;;;;5094045;28;21035;-59
2024/03/15 09:53:49;;;;;;;7.33;6.63;;;14.50;99.90;;;;;;5094333;28;20486;-61
2024/03/15 09:56:17;;;;;;;6.60;5.80;;;14.50;99.90;;;;;;5094129;28;20508;-60
2024/03/15 09:58:45;;;;;;;6.90;6.23;;;14.50;99.90;;;;;;5094355;28;20499;-61
2024/03/15 10:01:12;;;;;;;7.33;5.90;;;14.50;99.90;;;;;;5093795;28;20489;-61
2024/03/15 10:03:41;;;;;;;6.20;5.60;;;14.50;99.90;;;;;;5094172;28;20953;-60
2024/03/15 10:06:09;;;;;;;7.43;6.80;;;14.40;99.90;;;;;;5093770;28;20453;-60
2024/03/15 10:08:36;;;;;;;6.90;6.17;;;14.40;99.90;;;;;;5094204;28;20452;-60
2024/03/15 10:11:03;;;;;;;6.80;5.80;;;14.30;99.90;;;;;;5093924;28;20479;-57
2024/03/15 10:13:30;;;;;;;8.27;6.70;;;14.30;99.90;;;;;;5094018;28;21070;-60
2024/03/15 10:15:59;;;;;;;7.80;6.13;;;14.30;99.90;;;;;;5094191;28;20961;-61
2024/03/15 10:18:26;;;;;;;9.70;8.20;;;14.30;99.90;;;;;;5093863;28;20446;-61
2024/03/15 10:20:54;;;;;;;7.87;6.30;;;14.30;99.90;;;;;;5093731;28;20809;-61
2024/03/15 10:23:21;;;;;;;6.43;5.77;;;14.30;99.90;;;;;;5093714;28;20532;-61
2024/03/15 10:25:50;;;;;;;6.33;5.70;;;14.30;99.90;;;;;;5094612;28;20944;-60
2024/03/15 10:28:20;;;;;;;7.90;6.13;;;14.30;99.90;;;;;;5094183;28;20947;-59
2024/03/15 10:30:47;;;;;;;7.00;6.07;;;14.30;99.90;;;;;;5095719;28;20445;-62
2024/03/15 10:33:14;;;;;;;8.30;6.20;;;14.30;99.90;;;;;;5093978;28;20947;-59
2024/03/15 10:35:41;;;;;;;7.83;6.70;;;14.30;99.90;;;;;;5094533;28;20449;-61
2024/03/15 10:38:09;;;;;;;7.00;6.00;;;14.30;99.90;;;;;;5095187;28;20446;-62
2024/03/15 10:40:36;;;;;;;11.10;6.70;;;14.30;99.90;;;;;;5094890;28;20442;-60
2024/03/15 10:43:08;;;;;;;7.70;6.33;;;14.40;99.90;;;;;;5093276;28;20461;-61
2024/03/15 10:45:35;;;;;;;8.90;6.60;;;14.40;99.90;;;;;;5093514;28;20426;-60
2024/03/15 10:48:02;;;;;;;8.60;7.00;;;14.50;99.90;;;;;;5094683;28;20452;-60
2024/03/15 10:50:29;;;;;;;13.57;6.50;;;14.70;99.90;;;;;;5094090;28;20480;-60
2024/03/15 10:52:56;;;;;;;7.60;5.63;;;14.80;99.90;;;;;;5093255;28;20469;-61
2024/03/15 10:55:22;;;;;;;8.83;5.60;;;15.00;99.90;;;;;;5093131;28;20530;-60
2024/03/15 10:57:50;;;;;;;6.30;5.60;;;15.30;99.90;;;;;;5093537;28;20430;-61
2024/03/15 11:00:17;;;;;;;6.80;5.83;;;15.50;99.90;;;;;;5094711;28;20453;-62
2024/03/15 11:02:44;;;;;;;6.87;5.80;;;15.60;99.90;;;;;;5095109;28;20523;-61
2024/03/15 11:05:14;;;;;;;6.10;5.50;;;15.80;99.90;;;;;;5094182;28;20437;-62
2024/03/15 11:07:41;;;;;;;9.73;5.50;;;15.90;99.90;;;;;;5097300;28;20973;-61
2024/03/15 11:10:10;;;;;;;8.70;6.13;;;16.00;99.90;;;;;;5095275;28;20806;-62
2024/03/15 11:12:37;;;;;;;16.97;6.30;;;16.00;99.90;;;;;;5093483;28;20516;-61
2024/03/15 11:15:10;;;;;;;5.40;4.90;;;15.90;99.90;;;;;;5093527;28;20558;-61
2024/03/15 11:17:37;;;;;;;7.93;5.83;;;15.80;99.90;;;;;;5092713;28;20435;-60
2024/03/15 11:20:09;;;;;;;7.80;4.90;;;15.90;99.90;;;;;;5093014;28;20447;-61
2024/03/15 11:22:39;;;;;;;7.70;5.00;;;16.00;99.90;;;;;;5092394;28;20468;-61
2024/03/15 11:25:06;;;;;;;5.80;4.80;;;16.00;99.90;;;;;;5093290;28;20497;-62
2024/03/15 11:27:33;;;;;;;6.53;5.63;;;16.00;99.90;;;;;;5093077;28;20441;-61
2024/03/15 11:30:00;;;;;;;5.60;4.60;;;15.90;99.90;;;;;;5093453;28;20783;-61
2024/03/15 11:32:26;;;;;;;6.87;5.30;;;15.90;99.90;;;;;;5092152;28;20827;-61
2024/03/15 11:34:54;;;;;;;7.57;5.27;;;15.90;99.90;;;;;;5092643;28;20858;-61
2024/03/15 11:37:23;;;;;;;6.57;5.47;;;16.00;99.90;;;;;;5092475;28;20435;-62
2024/03/15 11:39:57;;;;;;;5.93;5.37;;;16.10;99.90;;;;;;5093641;28;20443;-62
2024/03/15 11:42:24;;;;;;;6.00;5.50;;;16.20;99.90;;;;;;5092401;28;20485;-62
2024/03/15 11:44:51;;;;;;;6.00;5.40;;;16.20;99.90;;;;;;5092297;28;20439;-62
2024/03/15 11:47:18;;;;;;;8.57;5.40;;;16.20;99.90;;;;;;5093186;28;20450;-61
2024/03/15 11:49:45;;;;;;;6.00;5.47;;;16.10;99.90;;;;;;5092698;28;20530;-62
2024/03/15 11:52:12;;;;;;;5.23;4.73;;;16.20;99.90;;;;;;5092291;28;20462;-63
2024/03/15 11:54:39;;;;;;;5.37;4.80;;;16.20;99.90;;;;;;5092109;28;20483;-63
2024/03/15 11:57:06;;;;;;;6.80;4.90;;;16.20;99.90;;;;;;5091876;28;20959;-60
2024/03/15 11:59:34;;;;;;;6.03;4.87;;;16.30;99.90;;;;;;5092125;28;20442;-62
2024/03/15 12:02:01;;;;;;;5.37;4.83;;;16.20;99.90;;;;;;5098892;28;20470;-61
2024/03/15 12:04:28;;;;;;;7.90;5.40;;;16.20;99.90;;;;;;5099790;28;20623;-63
2024/03/15 12:06:55;;;;;;;5.27;4.87;;;16.20;99.90;;;;;;5099274;28;20838;-62
2024/03/15 12:09:22;;;;;;;5.20;4.50;;;16.10;99.90;;;;;;5099895;28;20801;-62
2024/03/15 12:11:49;;;;;;;6.00;5.50;;;16.20;99.90;;;;;;5097307;28;20801;-62
2024/03/15 12:14:15;;;;;;;6.73;4.90;;;16.20;99.90;;;;;;5092661;28;20676;-62
2024/03/15 12:16:43;;;;;;;6.27;5.17;;;16.10;99.90;;;;;;5092590;28;20442;-62
2024/03/15 12:19:12;;;;;;;5.30;4.77;;;16.10;99.90;;;;;;5092375;28;20443;-62
2024/03/15 12:21:40;;;;;;;5.80;4.80;;;16.10;99.90;;;;;;5091642;28;20459;-63
2024/03/15 12:24:07;;;;;;;8.00;5.03;;;16.20;99.90;;;;;;5091962;28;20444;-62
2024/03/15 12:26:34;;;;;;;9.67;5.47;;;16.30;99.90;;;;;;5092280;28;21012;-63
2024/03/15 12:29:00;;;;;;;6.63;5.20;;;16.50;99.90;;;;;;5092087;28;20440;-62
2024/03/15 12:31:27;;;;;;;6.13;4.93;;;16.60;99.90;;;;;;5092088;28;20844;-62
2024/03/15 12:33:54;;;;;;;11.23;5.10;;;16.70;99.90;;;;;;5093854;28;20437;-60
2024/03/15 12:36:21;;;;;;;5.90;5.30;;;16.80;99.50;;;;;;5095546;28;20471;-63
2024/03/15 12:38:48;;;;;;;6.13;5.63;;;16.90;99.10;;;;;;5096236;28;20945;-62
2024/03/15 12:41:15;;;;;;;6.20;4.70;;;17.00;98.30;;;;;;5096256;28;20502;-62
2024/03/15 12:43:42;;;;;;;5.30;4.80;;;17.00;98.00;;;;;;5096360;28;20496;-63
2024/03/15 12:46:09;;;;;;;5.83;4.93;;;16.90;98.40;;;;;;5095924;28;20820;-62
2024/03/15 12:48:36;;;;;;;5.67;5.17;;;16.80;98.60;;;;;;5096307;28;20888;-62
2024/03/15 12:51:04;;;;;;;9.67;5.97;;;16.80;98.80;;;;;;5095988;28;20457;-62